createdAt,value
2018-02-21T00:02:23.526Z,99.90
2018-02-21T00:04:51.790Z,99.90
2018-02-21T00:07:20.799Z,99.90
2018-02-21T00:09:49.091Z,99.90
2018-02-21T00:12:17.356Z,99.90
2018-02-21T00:14:46.383Z,99.90
2018-02-21T00:17:14.647Z,99.90
2018-02-21T00:19:42.905Z,99.90
2018-02-21T00:22:12.994Z,99.90
2018-02-21T00:24:41.321Z,99.90
2018-02-21T00:27:09.599Z,99.90
2018-02-21T00:29:37.870Z,99.90
2018-02-21T00:32:06.117Z,99.90
2018-02-21T00:34:35.153Z,99.90
2018-02-21T00:37:03.477Z,99.90
2018-02-21T00:39:31.910Z,99.90
2018-02-21T00:42:00.464Z,99.90
2018-02-21T00:44:28.749Z,99.90
2018-02-21T00:46:57.066Z,99.90
2018-02-21T00:49:25.346Z,99.90
2018-02-21T00:51:53.619Z,99.90
2018-02-21T00:54:21.880Z,99.90
2018-02-21T00:56:50.122Z,99.90
2018-02-21T00:59:19.148Z,99.90
2018-02-21T01:01:47.430Z,99.90
2018-02-21T01:04:15.704Z,99.90
2018-02-21T01:06:44.106Z,99.90
2018-02-21T01:09:12.343Z,99.90
2018-02-21T01:11:40.977Z,99.90
2018-02-21T01:14:09.207Z,99.90
2018-02-21T01:16:37.490Z,99.90
2018-02-21T01:19:05.762Z,99.90
2018-02-21T01:21:34.019Z,99.90
2018-02-21T01:24:02.328Z,99.90
2018-02-21T01:26:30.592Z,99.90
2018-02-21T01:28:58.864Z,99.90
2018-02-21T01:31:28.061Z,99.90
2018-02-21T01:33:57.098Z,99.90
2018-02-21T01:36:25.369Z,99.90
2018-02-21T01:38:53.714Z,99.90
2018-02-21T01:41:22.010Z,99.90
2018-02-21T01:43:50.287Z,99.90
2018-02-21T01:46:19.302Z,99.90
2018-02-21T01:48:47.562Z,99.90
2018-02-21T01:51:15.813Z,99.90
2018-02-21T01:53:44.860Z,99.90
2018-02-21T01:56:13.130Z,99.90
2018-02-21T01:58:41.379Z,99.90
2018-02-21T02:01:09.654Z,99.90
2018-02-21T02:03:37.937Z,99.90
2018-02-21T02:06:06.213Z,99.90
2018-02-21T02:08:34.537Z,99.90
2018-02-21T02:11:03.606Z,99.90
2018-02-21T02:13:32.286Z,99.90
2018-02-21T02:16:00.540Z,99.90
2018-02-21T02:18:29.541Z,99.90
2018-02-21T02:20:57.831Z,99.90
2018-02-21T02:23:26.095Z,99.90
2018-02-21T02:25:55.083Z,99.90
2018-02-21T02:28:23.370Z,99.90
2018-02-21T02:30:51.629Z,99.90
2018-02-21T02:33:20.794Z,99.90
2018-02-21T02:35:49.054Z,99.90
2018-02-21T02:38:29.133Z,99.90
2018-02-21T02:40:58.909Z,99.90
2018-02-21T02:43:27.223Z,99.90
2018-02-21T02:45:55.457Z,99.90
2018-02-21T02:48:23.778Z,99.90
2018-02-21T02:50:52.025Z,99.90
2018-02-21T02:53:20.286Z,99.90
2018-02-21T02:55:48.597Z,99.90
2018-02-21T02:58:16.872Z,99.90
2018-02-21T03:00:45.152Z,99.90
2018-02-21T03:03:13.418Z,99.90
2018-02-21T03:05:41.690Z,99.90
2018-02-21T03:08:09.942Z,99.90
2018-02-21T03:10:38.218Z,99.90
2018-02-21T03:13:06.522Z,99.90
2018-02-21T03:15:34.937Z,99.90
2018-02-21T03:18:03.178Z,99.90
2018-02-21T03:20:31.429Z,99.90
2018-02-21T03:22:59.685Z,99.90
2018-02-21T03:25:28.737Z,99.90
2018-02-21T03:27:56.999Z,99.90
2018-02-21T03:30:25.282Z,99.90
2018-02-21T03:32:53.547Z,99.90
2018-02-21T03:35:21.806Z,99.90
2018-02-21T03:37:50.094Z,99.90
2018-02-21T03:40:19.152Z,99.90
2018-02-21T03:42:47.425Z,99.90
2018-02-21T03:45:16.470Z,99.90
2018-02-21T03:47:44.764Z,99.90
2018-02-21T03:50:13.007Z,99.90
2018-02-21T03:52:42.048Z,99.90
2018-02-21T03:55:10.318Z,99.90
2018-02-21T03:57:38.601Z,99.90
2018-02-21T04:00:06.874Z,99.90
2018-02-21T04:02:35.945Z,99.90
2018-02-21T04:05:04.256Z,99.90
2018-02-21T04:07:32.498Z,99.90
2018-02-21T04:10:00.795Z,99.90
2018-02-21T04:12:29.058Z,99.90
2018-02-21T04:14:57.306Z,99.90
2018-02-21T04:17:26.336Z,99.90
2018-02-21T04:19:54.573Z,99.90
2018-02-21T04:22:23.620Z,99.90
2018-02-21T04:24:51.863Z,99.90
2018-02-21T04:27:20.942Z,99.90
2018-02-21T04:29:49.194Z,99.90
2018-02-21T04:32:17.462Z,99.90
2018-02-21T04:34:45.722Z,99.90
2018-02-21T04:37:14.424Z,99.90
2018-02-21T04:39:42.712Z,99.90
2018-02-21T04:42:10.978Z,99.90
2018-02-21T04:44:39.241Z,99.90
2018-02-21T04:47:07.557Z,99.90
2018-02-21T04:49:35.834Z,99.90
2018-02-21T04:52:04.089Z,99.90
2018-02-21T04:54:50.129Z,99.90
2018-02-21T05:00:34.030Z,99.90
2018-02-21T05:03:02.301Z,99.90
2018-02-21T05:05:30.546Z,99.90
2018-02-21T05:07:59.610Z,99.90
2018-02-21T05:10:27.918Z,99.90
2018-02-21T05:12:56.952Z,99.90
2018-02-21T05:15:25.242Z,99.90
2018-02-21T05:17:53.484Z,99.90
2018-02-21T05:20:21.763Z,99.90
2018-02-21T05:22:50.789Z,99.90
2018-02-21T05:25:19.064Z,99.90
2018-02-21T05:27:47.392Z,99.90
2018-02-21T05:30:15.629Z,99.90
2018-02-21T05:32:45.020Z,99.90
2018-02-21T05:35:13.310Z,99.90
2018-02-21T05:37:43.519Z,99.90
2018-02-21T05:40:11.795Z,99.90
2018-02-21T05:42:40.119Z,99.90
2018-02-21T05:45:08.363Z,99.90
2018-02-21T05:47:36.666Z,99.90
2018-02-21T05:50:04.959Z,99.90
2018-02-21T05:52:33.235Z,99.90
2018-02-21T05:55:01.541Z,99.90
2018-02-21T05:57:30.587Z,99.90
2018-02-21T05:59:58.832Z,99.90
2018-02-21T06:02:27.091Z,99.90
2018-02-21T06:04:55.415Z,99.90
2018-02-21T06:07:25.435Z,99.90
2018-02-21T06:09:53.712Z,99.90
2018-02-21T06:12:22.000Z,99.90
2018-02-21T06:14:50.306Z,99.90
2018-02-21T06:17:19.377Z,99.90
2018-02-21T06:19:47.633Z,99.90
2018-02-21T06:22:15.915Z,99.90
2018-02-21T06:24:44.234Z,99.90
2018-02-21T06:27:13.329Z,99.90
2018-02-21T06:29:41.767Z,99.90
2018-02-21T06:32:10.061Z,99.90
2018-02-21T06:34:38.319Z,99.90
2018-02-21T06:37:06.616Z,99.90
2018-02-21T06:39:34.914Z,99.90
2018-02-21T06:42:03.185Z,99.90
2018-02-21T06:44:31.464Z,99.90
2018-02-21T06:47:00.583Z,99.90
2018-02-21T06:49:29.673Z,99.90
2018-02-21T06:51:57.930Z,99.90
2018-02-21T06:54:26.255Z,99.90
2018-02-21T06:56:54.529Z,99.90
2018-02-21T06:59:22.823Z,99.90
2018-02-21T07:01:51.187Z,99.90
2018-02-21T07:04:19.395Z,99.90
2018-02-21T07:06:47.686Z,99.90
2018-02-21T07:09:15.967Z,99.90
2018-02-21T07:11:44.266Z,99.90
2018-02-21T07:14:13.265Z,99.90
2018-02-21T07:16:41.640Z,99.90
2018-02-21T07:19:11.136Z,99.90
2018-02-21T07:21:39.382Z,99.90
2018-02-21T07:24:07.646Z,99.90
2018-02-21T07:26:36.837Z,99.90
2018-02-21T07:29:05.125Z,99.90
2018-02-21T07:31:33.407Z,99.90
2018-02-21T07:34:01.651Z,99.90
2018-02-21T07:36:29.921Z,99.90
2018-02-21T07:38:58.934Z,99.90
2018-02-21T07:41:27.188Z,99.90
2018-02-21T07:43:56.249Z,99.90
2018-02-21T07:46:24.505Z,99.90
2018-02-21T07:48:52.826Z,99.90
2018-02-21T07:51:21.117Z,99.90
2018-02-21T07:53:50.141Z,99.90
2018-02-21T07:56:18.758Z,99.90
2018-02-21T07:58:46.997Z,99.90
2018-02-21T08:01:15.257Z,99.90
2018-02-21T08:03:44.292Z,99.90
2018-02-21T08:06:12.541Z,99.90
2018-02-21T08:08:40.961Z,99.90
2018-02-21T08:11:09.243Z,99.90
2018-02-21T08:13:37.522Z,99.90
2018-02-21T08:16:05.771Z,99.90
2018-02-21T08:18:34.057Z,99.90
2018-02-21T08:21:02.965Z,99.90
2018-02-21T08:23:31.264Z,99.90
2018-02-21T08:25:59.525Z,99.90
2018-02-21T08:28:27.793Z,99.90
2018-02-21T08:30:56.042Z,99.90
2018-02-21T08:33:24.341Z,99.90
2018-02-21T08:35:52.611Z,99.90
2018-02-21T08:38:20.877Z,99.90
2018-02-21T08:40:49.130Z,99.90
2018-02-21T08:43:18.184Z,99.90
2018-02-21T08:45:46.420Z,99.90
2018-02-21T08:48:15.604Z,99.90
2018-02-21T08:50:44.665Z,99.90
2018-02-21T08:53:13.054Z,99.90
2018-02-21T08:55:41.379Z,99.90
2018-02-21T08:58:09.627Z,99.90
2018-02-21T09:00:38.682Z,99.90
2018-02-21T09:03:06.944Z,99.90
2018-02-21T09:05:35.239Z,99.90
2018-02-21T09:08:04.384Z,99.90
2018-02-21T09:10:33.414Z,99.90
2018-02-21T09:13:01.691Z,99.90
2018-02-21T09:15:29.982Z,99.90
2018-02-21T09:17:58.238Z,99.90
2018-02-21T09:20:26.495Z,99.90
2018-02-21T09:22:55.695Z,99.90
2018-02-21T09:25:24.735Z,99.90
2018-02-21T09:27:52.986Z,99.90
2018-02-21T09:30:21.264Z,99.90
2018-02-21T09:32:49.654Z,99.90
2018-02-21T09:35:17.925Z,99.90
2018-02-21T09:37:46.210Z,99.90
2018-02-21T09:40:14.475Z,99.90
2018-02-21T09:42:42.727Z,99.90
2018-02-21T09:45:10.995Z,99.90
2018-02-21T09:47:40.055Z,99.90
2018-02-21T09:50:08.302Z,99.90
2018-02-21T09:52:37.364Z,99.90
2018-02-21T09:55:05.644Z,99.90
2018-02-21T09:57:33.846Z,99.90
2018-02-21T10:00:02.118Z,99.90
2018-02-21T10:02:31.181Z,99.90
2018-02-21T10:04:59.464Z,99.90
2018-02-21T10:07:27.717Z,99.90
2018-02-21T10:09:55.975Z,99.90
2018-02-21T10:12:24.224Z,99.90
2018-02-21T10:14:53.224Z,99.90
2018-02-21T10:17:21.492Z,99.90
2018-02-21T10:19:49.780Z,99.90
2018-02-21T10:22:18.039Z,99.90
2018-02-21T10:24:47.072Z,99.90
2018-02-21T10:27:15.652Z,99.90
2018-02-21T10:29:43.888Z,99.70
2018-02-21T10:32:13.481Z,99.40
2018-02-21T10:34:41.738Z,99.30
2018-02-21T10:37:10.089Z,99.60
2018-02-21T10:39:39.098Z,99.00
2018-02-21T10:42:07.334Z,99.00
2018-02-21T10:44:36.402Z,99.00
2018-02-21T10:47:05.617Z,99.60
2018-02-21T10:49:34.661Z,99.70
2018-02-21T10:52:02.949Z,99.60
2018-02-21T10:54:31.223Z,99.60
2018-02-21T10:56:59.478Z,98.90
2018-02-21T10:59:28.501Z,99.00
2018-02-21T11:01:56.764Z,98.90
2018-02-21T11:04:25.017Z,98.90
2018-02-21T11:06:53.291Z,98.70
2018-02-21T11:09:22.335Z,98.30
2018-02-21T11:11:50.635Z,98.30
2018-02-21T11:14:18.914Z,98.20
2018-02-21T11:16:49.282Z,99.00
2018-02-21T11:19:17.543Z,98.90
2018-02-21T11:21:46.828Z,98.10
2018-02-21T11:24:15.124Z,98.10
2018-02-21T11:26:43.375Z,98.50
2018-02-21T11:29:11.759Z,98.60
2018-02-21T11:31:40.046Z,99.70
2018-02-21T11:34:10.014Z,99.90
2018-02-21T11:36:38.260Z,99.90
2018-02-21T11:39:06.514Z,99.90
2018-02-21T11:41:34.814Z,99.90
2018-02-21T11:44:03.166Z,99.90
2018-02-21T11:46:31.426Z,99.90
2018-02-21T11:48:59.716Z,99.90
2018-02-21T11:51:29.182Z,99.90
2018-02-21T11:53:57.424Z,99.90
2018-02-21T11:56:25.702Z,99.90
2018-02-21T11:58:54.059Z,99.90
2018-02-21T12:01:22.324Z,99.90
2018-02-21T12:03:50.630Z,99.90
2018-02-21T12:06:18.899Z,99.90
2018-02-21T12:08:48.692Z,99.90
2018-02-21T12:11:16.937Z,99.90
2018-02-21T12:13:45.228Z,99.90
2018-02-21T12:16:13.495Z,99.90
2018-02-21T12:18:41.776Z,99.90
2018-02-21T12:21:10.072Z,99.90
2018-02-21T12:23:38.323Z,99.90
2018-02-21T12:26:06.603Z,99.90
2018-02-21T12:28:34.847Z,99.90
2018-02-21T12:31:03.149Z,99.90
2018-02-21T12:33:31.427Z,99.90
2018-02-21T12:35:59.704Z,99.90
2018-02-21T12:38:27.949Z,99.90
2018-02-21T12:41:02.743Z,99.90
2018-02-21T12:43:31.008Z,99.90
2018-02-21T12:45:59.289Z,99.90
2018-02-21T12:48:27.598Z,99.90
2018-02-21T12:50:56.556Z,99.90
2018-02-21T12:53:24.834Z,99.90
2018-02-21T12:55:53.086Z,99.90
2018-02-21T12:58:21.321Z,99.90
2018-02-21T13:00:50.383Z,99.90
2018-02-21T13:03:18.665Z,99.90
2018-02-21T13:05:46.924Z,99.90
2018-02-21T13:08:15.192Z,99.90
2018-02-21T13:10:43.455Z,99.90
2018-02-21T13:13:12.539Z,99.90
2018-02-21T13:15:41.588Z,99.90
2018-02-21T13:18:09.872Z,99.90
2018-02-21T13:20:38.137Z,99.90
2018-02-21T13:23:06.465Z,99.90
2018-02-21T13:25:35.497Z,99.90
2018-02-21T13:28:03.755Z,99.90
2018-02-21T13:30:32.046Z,99.90
2018-02-21T13:33:00.342Z,99.90
2018-02-21T13:35:28.723Z,99.90
2018-02-21T13:37:56.963Z,99.80
2018-02-21T13:40:25.253Z,99.90
2018-02-21T13:42:53.489Z,99.80
2018-02-21T13:45:23.279Z,99.80
2018-02-21T13:47:51.553Z,99.80
2018-02-21T13:50:19.876Z,99.50
2018-02-21T13:52:48.114Z,99.00
2018-02-21T13:55:16.398Z,98.20
2018-02-21T13:57:44.659Z,98.50
2018-02-21T14:00:12.922Z,98.30
2018-02-21T14:02:41.180Z,98.20
2018-02-21T14:05:10.216Z,96.80
2018-02-21T14:07:38.524Z,96.80
2018-02-21T14:10:06.806Z,96.90
2018-02-21T14:12:35.495Z,96.00
2018-02-21T14:15:03.738Z,96.20
2018-02-21T14:17:32.073Z,96.40
2018-02-21T14:20:00.298Z,96.60
2018-02-21T14:22:29.081Z,97.20
2018-02-21T14:24:57.365Z,97.90
2018-02-21T14:27:25.625Z,98.00
2018-02-21T14:29:54.037Z,97.50
2018-02-21T14:32:22.297Z,97.70
2018-02-21T14:34:50.570Z,97.90
2018-02-21T14:37:18.879Z,98.10
2018-02-21T14:39:47.113Z,98.40
2018-02-21T14:42:15.506Z,98.40
2018-02-21T14:44:43.749Z,98.20
2018-02-21T14:47:12.218Z,97.70
2018-02-21T14:49:40.500Z,97.30
2018-02-21T14:52:09.661Z,96.70
2018-02-21T14:54:37.916Z,96.70
2018-02-21T14:57:06.327Z,96.40
2018-02-21T14:59:34.576Z,96.60
2018-02-21T15:02:02.822Z,96.80
2018-02-21T15:04:31.115Z,96.70
2018-02-21T15:06:59.388Z,96.60
2018-02-21T15:09:27.674Z,96.30
2018-02-21T15:11:55.963Z,96.50
2018-02-21T15:14:25.258Z,96.80
2018-02-21T15:16:53.520Z,97.00
2018-02-21T15:19:21.798Z,97.30
2018-02-21T15:21:50.070Z,98.00
2018-02-21T15:24:18.385Z,97.90
2018-02-21T15:26:46.649Z,97.60
2018-02-21T15:29:14.911Z,97.80
2018-02-21T15:31:43.225Z,97.80
2018-02-21T15:34:11.917Z,97.90
2018-02-21T15:36:40.178Z,97.90
2018-02-21T15:39:08.493Z,97.20
2018-02-21T15:41:36.931Z,97.50
2018-02-21T15:44:05.333Z,97.30
2018-02-21T15:46:33.588Z,97.60
2018-02-21T15:49:01.854Z,97.60
2018-02-21T15:51:30.269Z,97.30
2018-02-21T15:53:58.562Z,97.50
2018-02-21T15:56:27.588Z,97.50
2018-02-21T15:58:55.887Z,97.70
2018-02-21T16:01:24.733Z,97.60
2018-02-21T16:03:54.855Z,98.30
2018-02-21T16:06:24.195Z,97.60
2018-02-21T16:08:52.440Z,97.60
2018-02-21T16:11:20.751Z,97.50
2018-02-21T16:13:49.060Z,97.40
2018-02-21T16:16:17.343Z,97.70
2018-02-21T16:18:45.617Z,97.50
2018-02-21T16:21:13.989Z,97.70
2018-02-21T16:23:42.219Z,97.60
2018-02-21T16:26:10.508Z,97.90
2018-02-21T16:28:38.840Z,98.00
2018-02-21T16:31:07.902Z,98.40
2018-02-21T16:33:36.183Z,98.40
2018-02-21T16:36:04.475Z,98.80
2018-02-21T16:38:32.764Z,98.80
2018-02-21T16:41:01.905Z,99.00
2018-02-21T16:43:30.377Z,99.80
2018-02-21T16:45:58.722Z,99.70
2018-02-21T16:48:26.969Z,99.80
2018-02-21T16:50:55.302Z,99.90
2018-02-21T16:53:23.574Z,99.90
2018-02-21T16:55:51.915Z,99.90
2018-02-21T16:58:20.303Z,99.90
2018-02-21T17:00:48.565Z,99.90
2018-02-21T17:03:16.919Z,99.90
2018-02-21T17:05:45.227Z,99.90
2018-02-21T17:08:13.538Z,99.90
2018-02-21T17:10:41.812Z,99.90
2018-02-21T17:13:10.897Z,99.90
2018-02-21T17:15:39.290Z,99.90
2018-02-21T17:18:07.605Z,99.90
2018-02-21T17:20:35.958Z,99.90
2018-02-21T17:23:05.051Z,99.90
2018-02-21T17:25:34.106Z,99.90
2018-02-21T17:28:02.428Z,99.90
2018-02-21T17:30:30.775Z,99.90
2018-02-21T17:32:59.035Z,99.90
2018-02-21T17:35:27.330Z,99.90
2018-02-21T17:37:55.623Z,99.90
2018-02-21T17:40:23.885Z,99.90
2018-02-21T17:42:52.203Z,99.90
2018-02-21T17:45:20.503Z,99.90
2018-02-21T17:47:50.168Z,99.90
2018-02-21T17:50:22.422Z,99.90
2018-02-21T17:52:51.944Z,99.90
2018-02-21T17:55:35.733Z,99.90
2018-02-21T17:58:04.745Z,99.90
2018-02-21T18:00:33.028Z,99.90
2018-02-21T18:03:05.637Z,99.90
2018-02-21T18:05:37.512Z,99.90
2018-02-21T18:08:07.978Z,99.90
2018-02-21T18:10:37.521Z,99.90
2018-02-21T18:13:08.575Z,99.90
2018-02-21T18:15:40.133Z,99.90
2018-02-21T18:18:08.934Z,99.90
2018-02-21T18:20:41.592Z,99.90
2018-02-21T18:23:09.968Z,99.90
2018-02-21T18:25:38.271Z,99.90
2018-02-21T18:28:08.039Z,99.90
2018-02-21T18:30:36.337Z,99.90
2018-02-21T18:33:04.683Z,99.90
2018-02-21T18:35:32.992Z,99.90
2018-02-21T18:38:01.306Z,99.90
2018-02-21T18:40:30.400Z,99.90
2018-02-21T18:42:59.486Z,99.90
2018-02-21T18:45:27.738Z,99.90
2018-02-21T18:47:56.057Z,99.90
2018-02-21T18:50:24.309Z,99.90
2018-02-21T18:52:53.396Z,99.90
2018-02-21T18:55:22.012Z,99.90
2018-02-21T18:57:51.097Z,99.90
2018-02-21T19:00:19.385Z,99.90
2018-02-21T19:02:48.367Z,99.90
2018-02-21T19:05:16.654Z,99.90
2018-02-21T19:07:45.888Z,99.90
2018-02-21T19:10:14.328Z,99.90
2018-02-21T19:12:42.592Z,99.90
2018-02-21T19:15:10.862Z,99.90
2018-02-21T19:17:39.980Z,99.90
2018-02-21T19:20:08.320Z,99.90
2018-02-21T19:22:36.758Z,99.90
2018-02-21T19:25:05.027Z,99.90
2018-02-21T19:27:33.375Z,99.90
2018-02-21T19:30:01.700Z,99.90
2018-02-21T19:32:30.871Z,99.90
2018-02-21T19:35:00.269Z,99.90
2018-02-21T19:37:28.581Z,99.90
2018-02-21T19:39:57.688Z,99.90
2018-02-21T19:42:26.116Z,99.90
2018-02-21T19:44:54.755Z,99.90
2018-02-21T19:47:23.039Z,99.90
2018-02-21T19:49:51.350Z,99.90
2018-02-21T19:52:19.659Z,99.90
2018-02-21T19:54:47.932Z,99.90
2018-02-21T19:57:16.402Z,99.90
2018-02-21T19:59:44.679Z,99.90
2018-02-21T20:02:13.068Z,99.90
2018-02-21T20:04:41.377Z,99.90
2018-02-21T20:07:09.728Z,99.90
2018-02-21T20:09:38.165Z,99.90
2018-02-21T20:12:06.490Z,99.90
2018-02-21T20:14:34.723Z,99.90
2018-02-21T20:17:03.049Z,99.90
2018-02-21T20:19:31.336Z,99.90
2018-02-21T20:22:00.352Z,99.90
2018-02-21T20:24:28.658Z,99.90
2018-02-21T20:26:57.457Z,99.90
2018-02-21T20:29:26.479Z,99.90
2018-02-21T20:31:54.801Z,99.90
2018-02-21T20:34:23.842Z,99.90
2018-02-21T20:36:52.160Z,99.90
2018-02-21T20:39:21.209Z,99.90
2018-02-21T20:41:49.527Z,99.90
2018-02-21T20:44:18.213Z,99.90
2018-02-21T20:46:48.207Z,99.90
2018-02-21T20:49:16.608Z,99.90
2018-02-21T20:51:45.668Z,99.90
2018-02-21T20:54:14.730Z,99.90
2018-02-21T20:56:43.019Z,99.90
2018-02-21T20:59:11.390Z,99.90
2018-02-21T21:01:39.726Z,99.90
2018-02-21T21:04:08.061Z,99.90
2018-02-21T21:06:36.928Z,99.90
2018-02-21T21:09:05.271Z,99.90
2018-02-21T21:11:33.569Z,99.90
2018-02-21T21:14:02.736Z,99.90
2018-02-21T21:16:32.594Z,99.90
2018-02-21T21:19:01.653Z,99.90
2018-02-21T21:21:29.918Z,99.90
2018-02-21T21:23:58.234Z,99.90
2018-02-21T21:26:27.293Z,99.90
2018-02-21T21:28:55.775Z,99.90
2018-02-21T21:31:24.089Z,99.90
2018-02-21T21:33:53.172Z,99.90
2018-02-21T21:36:21.657Z,99.90
2018-02-21T21:38:49.982Z,99.90
2018-02-21T21:41:18.304Z,99.90
2018-02-21T21:43:47.382Z,99.90
2018-02-21T21:46:16.530Z,99.90
2018-02-21T21:48:44.806Z,99.90
2018-02-21T21:51:13.146Z,99.90
2018-02-21T21:53:41.484Z,99.90
2018-02-21T21:56:10.624Z,99.90
2018-02-21T21:58:38.963Z,99.90
2018-02-21T22:01:07.278Z,99.90
2018-02-21T22:03:35.597Z,99.90
2018-02-21T22:06:03.880Z,99.90
2018-02-21T22:08:32.188Z,99.90
2018-02-21T22:11:00.501Z,99.90
2018-02-21T22:13:29.578Z,99.90
2018-02-21T22:15:57.838Z,99.90
2018-02-21T22:18:26.122Z,99.90
2018-02-21T22:20:54.405Z,99.90
2018-02-21T22:23:23.673Z,99.90
2018-02-21T22:25:52.014Z,99.90
2018-02-21T22:28:20.337Z,99.90
2018-02-21T22:30:48.633Z,99.90
2018-02-21T22:33:16.922Z,99.90
2018-02-21T22:35:45.138Z,99.90
2018-02-21T22:38:14.215Z,99.90
2018-02-21T22:40:42.482Z,99.90
2018-02-21T22:43:11.665Z,99.90
2018-02-21T22:45:39.934Z,99.90
2018-02-21T22:48:08.226Z,99.90
2018-02-21T22:50:36.518Z,99.90
2018-02-21T22:53:04.786Z,99.90
2018-02-21T22:55:34.062Z,99.90
2018-02-21T22:58:02.346Z,99.90
2018-02-21T23:00:33.483Z,99.90
2018-02-21T23:03:03.030Z,99.90
2018-02-21T23:05:31.302Z,99.90
2018-02-21T23:07:59.574Z,99.90
2018-02-21T23:10:27.841Z,99.90
2018-02-21T23:12:56.111Z,99.90
2018-02-21T23:15:24.388Z,99.90
2018-02-21T23:17:52.649Z,99.90
2018-02-21T23:20:20.922Z,99.90
2018-02-21T23:22:49.436Z,99.90
2018-02-21T23:25:17.680Z,99.90
2018-02-21T23:27:46.002Z,99.90
2018-02-21T23:30:14.242Z,99.90
2018-02-21T23:32:42.510Z,99.90
2018-02-21T23:35:10.787Z,99.90
2018-02-21T23:37:39.251Z,99.90
2018-02-21T23:40:08.291Z,99.90
2018-02-21T23:42:36.570Z,99.90
2018-02-21T23:45:04.829Z,99.90
2018-02-21T23:47:33.109Z,99.90
2018-02-21T23:50:01.373Z,99.90
2018-02-21T23:52:29.641Z,99.90
2018-02-21T23:54:57.919Z,99.90
2018-02-21T23:57:26.177Z,99.90
2018-02-21T23:59:55.224Z,99.90
